Garland, PA

3:56 AM EST on November 28, 2014 (GMT -0500)
Brokenstraw Airport | Change Station
CLOSE
Current Station
Personal Weather Station
Location: Pittsfield, PA
Elevation: 1235 ft
Nearby Weather Stations

Elev 1235 ft 41.83 °N, 79.36 °W | Updated 18 seconds ago

Overcast
Overcast
22.9 °F
Feels Like 15 °F
N
6.0
Wind Variable Wind from SW
Gusts 10.0 mph

Today
High -- | Low -- °F
--% Chance of Precip.
Yesterday
High -- | Low -- °F
Precip. -- in
7:22 AM 4:48 PM
Waxing Crescent, 38% visible
Pressure 30.14 in
Visibility 7.0 miles
Clouds Scattered Clouds 3000 ft
Mostly Cloudy 3500 ft
Overcast 4700 ft
Windchill 15 °F
Dew Point 20 °F
Humidity 89%
Rainfall 0.00 in
Snow Depth Not available.
UV 0 out of 12
Pollen .10 out of 12
Air Quality Not available.
Flu Activity Not available.
METAR KJHW 280835Z 31008KT 7SM SCT030 BKN035 OVC047 M06/M09 A3014 RMK AO1

More Conditions Fewer Conditions

Pressure 30.14 in
Visibility 7.0 miles
Clouds Scattered Clouds 3000 ft
Mostly Cloudy 3500 ft
Overcast 4700 ft
Windchill 15 °F
Dew Point 20 °F
Humidity 89%
Rainfall 0.00 in
Snow Depth Not available.
UV 0 out of 12
Pollen .10 out of 12
Air Quality Not available.
Flu Activity Not available.
METAR KJHW 280835Z 31008KT 7SM SCT030 BKN035 OVC047 M06/M09 A3014 RMK AO1

More Conditions Fewer Conditions

10-Day Weather Forecast

Almanac

Astronomy

Nov. 28, 2014 Rise Set
Actual Time
Civil Twilight
Nautical Twilight
Astronomical Twilight
Moon
Length of Visible Light
Length of Day
Tomorrow will be .
, % of the Moon is Illuminated

Today's Extremes

State Highs State Lows

Community

WunderPhotos

Upload Photos

1,774,190 photos uploaded!

WunderBlogs® & News

Nearby

Air Quality

  Air Quality AQ Index Pollutant
Not available.

Snow Depth

Station Depth Elevation

Earthquake Activity

City Distance Mag. Time & Date
Minimum magnitude displayed is 2.5.

Coastal Water Temperatures

Place Temperature

Nearby Weather Stations